createdAt,value
2022-10-02T00:01:17.246Z,14.59
2022-10-02T00:03:46.954Z,14.61
2022-10-02T00:06:21.291Z,14.60
2022-10-02T00:08:52.759Z,14.60
2022-10-02T00:11:23.782Z,14.60
2022-10-02T00:13:56.331Z,14.52
2022-10-02T00:16:30.404Z,14.61
2022-10-02T00:18:58.658Z,14.61
2022-10-02T00:21:38.814Z,14.61
2022-10-02T00:24:09.469Z,14.61
2022-10-02T00:26:41.631Z,14.61
2022-10-02T00:29:24.313Z,14.61
2022-10-02T00:32:04.646Z,14.62
2022-10-02T00:34:46.015Z,14.61
2022-10-02T00:37:22.367Z,14.60
2022-10-02T00:40:03.534Z,14.61
2022-10-02T00:42:55.613Z,14.62
2022-10-02T00:45:39.676Z,14.62
2022-10-02T00:48:23.146Z,14.62
2022-10-02T00:50:59.020Z,14.62
2022-10-02T00:53:37.647Z,14.61
2022-10-02T00:56:21.018Z,14.61
2022-10-02T00:59:19.060Z,14.59
2022-10-02T01:01:53.174Z,14.59
2022-10-02T01:04:29.305Z,14.58
2022-10-02T01:06:57.690Z,14.58
2022-10-02T01:09:26.617Z,14.49
2022-10-02T01:11:54.847Z,14.57
2022-10-02T01:14:32.310Z,14.56
2022-10-02T01:17:01.536Z,14.56
2022-10-02T01:19:37.047Z,14.56
2022-10-02T01:22:14.531Z,14.56
2022-10-02T01:24:49.969Z,14.47
2022-10-02T01:27:17.943Z,14.54
2022-10-02T01:29:47.431Z,14.53
2022-10-02T01:32:15.227Z,14.53
2022-10-02T01:34:43.535Z,14.52
2022-10-02T01:37:11.500Z,14.52
2022-10-02T01:39:39.411Z,14.51
2022-10-02T01:42:08.693Z,14.52
2022-10-02T01:44:36.772Z,14.50
2022-10-02T01:47:09.223Z,14.52
2022-10-02T01:49:48.305Z,14.50
2022-10-02T01:52:32.761Z,14.50
2022-10-02T01:55:27.556Z,14.50
2022-10-02T01:58:17.639Z,14.49
2022-10-02T02:00:58.576Z,14.49
2022-10-02T02:03:38.217Z,14.49
2022-10-02T02:06:13.235Z,14.49
2022-10-02T02:08:49.113Z,14.49
2022-10-02T02:11:19.147Z,14.49
2022-10-02T02:13:51.908Z,14.51
2022-10-02T02:16:25.745Z,14.51
2022-10-02T02:19:02.487Z,14.52
2022-10-02T02:21:31.272Z,14.51
2022-10-02T02:24:03.311Z,14.53
2022-10-02T02:26:32.027Z,14.52
2022-10-02T02:29:07.266Z,14.54
2022-10-02T02:31:40.076Z,14.44
2022-10-02T02:34:12.881Z,14.46
2022-10-02T02:36:45.691Z,14.53
2022-10-02T02:39:16.756Z,14.53
2022-10-02T02:41:49.196Z,14.54
2022-10-02T02:44:23.234Z,14.54
2022-10-02T02:47:07.667Z,14.54
2022-10-02T02:49:47.873Z,14.55
2022-10-02T02:52:23.186Z,14.55
2022-10-02T02:54:54.935Z,14.55
2022-10-02T02:57:28.993Z,14.56
2022-10-02T03:00:00.177Z,14.47
2022-10-02T03:02:28.073Z,14.54
2022-10-02T03:04:55.827Z,14.55
2022-10-02T03:07:23.623Z,14.53
2022-10-02T03:10:02.586Z,14.52
2022-10-02T03:12:42.912Z,14.52
2022-10-02T03:15:26.573Z,14.51
2022-10-02T03:18:09.430Z,14.50
2022-10-02T03:20:44.700Z,14.50
2022-10-02T03:23:23.729Z,14.50
2022-10-02T03:25:55.195Z,14.49
2022-10-02T03:28:53.662Z,14.49
2022-10-02T03:31:20.271Z,14.48
2022-10-02T03:33:51.312Z,14.48
2022-10-02T03:36:21.485Z,14.47
2022-10-02T03:39:06.262Z,14.47
2022-10-02T03:41:37.954Z,14.45
2022-10-02T03:44:05.702Z,14.45
2022-10-02T03:46:35.078Z,14.39
2022-10-02T03:49:03.053Z,14.43
2022-10-02T03:51:30.951Z,14.43
2022-10-02T03:53:58.638Z,14.43
2022-10-02T03:56:35.320Z,14.43
2022-10-02T03:59:06.611Z,14.42
2022-10-02T04:01:41.975Z,14.41
2022-10-02T04:04:17.743Z,14.42
2022-10-02T04:06:49.092Z,14.41
2022-10-02T04:09:23.141Z,14.42
2022-10-02T04:11:57.965Z,14.42
2022-10-02T04:14:31.587Z,14.43
2022-10-02T04:17:06.876Z,14.43
2022-10-02T04:19:39.073Z,14.43
2022-10-02T04:22:12.818Z,14.43
2022-10-02T04:24:47.140Z,14.38
2022-10-02T04:27:19.170Z,14.44
2022-10-02T04:29:52.786Z,14.44
2022-10-02T04:32:25.800Z,14.45
2022-10-02T04:34:54.263Z,14.45
2022-10-02T04:37:48.003Z,14.45
2022-10-02T04:40:31.188Z,14.43
2022-10-02T04:43:16.095Z,14.44
2022-10-02T04:45:59.818Z,14.44
2022-10-02T04:48:49.273Z,14.43
2022-10-02T04:51:31.801Z,14.44
2022-10-02T04:54:27.660Z,14.43
2022-10-02T04:57:19.188Z,14.44
2022-10-02T04:59:59.886Z,14.44
2022-10-02T05:02:44.422Z,14.44
2022-10-02T05:05:26.227Z,14.43
2022-10-02T05:08:12.146Z,14.44
2022-10-02T05:10:51.785Z,14.43
2022-10-02T05:13:37.596Z,14.45
2022-10-02T05:16:21.606Z,14.34
2022-10-02T05:19:21.538Z,14.44
2022-10-02T05:22:14.993Z,14.42
2022-10-02T05:24:49.762Z,14.43
2022-10-02T05:27:38.906Z,14.42
2022-10-02T05:30:10.240Z,14.42
2022-10-02T05:33:19.276Z,14.42
2022-10-02T05:35:59.416Z,14.41
2022-10-02T05:38:45.096Z,14.42
2022-10-02T05:41:19.572Z,14.34
2022-10-02T05:43:50.451Z,14.40
2022-10-02T05:46:24.120Z,14.42
2022-10-02T05:48:58.376Z,14.41
2022-10-02T05:51:36.969Z,14.41
2022-10-02T05:54:21.699Z,14.40
2022-10-02T05:56:55.855Z,14.40
2022-10-02T05:59:34.177Z,14.40
2022-10-02T06:02:06.754Z,14.40
2022-10-02T06:04:40.393Z,14.40
2022-10-02T06:07:11.473Z,14.40
2022-10-02T06:09:48.311Z,14.40
2022-10-02T06:12:26.595Z,14.31
2022-10-02T06:15:01.360Z,14.39
2022-10-02T06:17:34.883Z,14.41
2022-10-02T06:20:06.674Z,14.40
2022-10-02T06:22:37.025Z,14.40
2022-10-02T06:25:13.026Z,14.42
2022-10-02T06:27:46.720Z,14.42
2022-10-02T06:30:17.511Z,14.41
2022-10-02T06:32:52.440Z,14.41
2022-10-02T06:35:38.088Z,14.42
2022-10-02T06:38:19.373Z,14.41
2022-10-02T06:40:57.116Z,14.42
2022-10-02T06:43:43.771Z,14.42
2022-10-02T06:46:27.146Z,14.42
2022-10-02T06:49:00.469Z,14.43
2022-10-02T06:51:38.653Z,14.43
2022-10-02T06:54:29.267Z,14.43
2022-10-02T06:57:14.147Z,14.44
2022-10-02T07:00:02.489Z,14.45
2022-10-02T07:02:52.984Z,14.34
2022-10-02T07:05:59.533Z,14.42
2022-10-02T07:08:38.859Z,14.36
2022-10-02T07:11:15.797Z,14.45
2022-10-02T07:13:59.014Z,14.45
2022-10-02T07:16:40.921Z,14.44
2022-10-02T07:19:21.480Z,14.45
2022-10-02T07:22:01.094Z,14.45
2022-10-02T07:24:49.075Z,14.46
2022-10-02T07:27:21.989Z,14.46
2022-10-02T07:29:59.808Z,14.46
2022-10-02T07:32:47.516Z,14.45
2022-10-02T07:35:28.417Z,14.45
2022-10-02T07:38:11.085Z,14.45
2022-10-02T07:40:51.928Z,14.45
2022-10-02T07:43:34.025Z,14.45
2022-10-02T07:46:16.130Z,14.44
2022-10-02T07:49:03.581Z,14.44
2022-10-02T07:51:51.048Z,14.46
2022-10-02T07:54:52.346Z,14.46
2022-10-02T07:57:37.441Z,14.45
2022-10-02T08:00:13.085Z,14.44
2022-10-02T08:02:48.892Z,14.46
2022-10-02T08:05:23.346Z,14.45
2022-10-02T08:07:55.547Z,14.46
2022-10-02T08:10:26.762Z,14.46
2022-10-02T08:13:04.298Z,14.46
2022-10-02T08:15:38.594Z,14.47
2022-10-02T08:18:33.663Z,14.40
2022-10-02T08:21:03.917Z,14.47
2022-10-02T08:23:37.764Z,14.48
2022-10-02T08:26:10.606Z,14.49
2022-10-02T08:28:43.923Z,14.50
2022-10-02T08:31:12.843Z,14.50
2022-10-02T08:33:43.314Z,14.47
2022-10-02T08:36:33.169Z,14.52
2022-10-02T08:39:13.009Z,14.50
2022-10-02T08:42:18.489Z,14.50
2022-10-02T08:45:18.503Z,14.50
2022-10-02T08:48:23.635Z,14.51
2022-10-02T08:51:33.191Z,14.53
2022-10-02T08:54:45.266Z,14.53
2022-10-02T08:57:33.238Z,14.54
2022-10-02T09:00:12.597Z,14.55
2022-10-02T09:03:10.095Z,14.55
2022-10-02T09:06:18.615Z,14.55
2022-10-02T09:09:24.150Z,14.55
2022-10-02T09:12:33.491Z,14.57
2022-10-02T09:15:15.043Z,14.57
2022-10-02T09:17:46.903Z,14.58
2022-10-02T09:20:43.384Z,14.60
2022-10-02T09:23:44.186Z,14.60
2022-10-02T09:26:20.427Z,14.62
2022-10-02T09:29:26.954Z,14.64
2022-10-02T09:32:34.754Z,14.66
2022-10-02T09:35:30.965Z,14.65
2022-10-02T09:38:40.532Z,14.64
2022-10-02T09:41:48.333Z,14.69
2022-10-02T09:44:47.518Z,14.71
2022-10-02T09:47:48.611Z,14.71
2022-10-02T09:50:55.226Z,14.72
2022-10-02T09:53:45.447Z,14.72
2022-10-02T09:56:58.895Z,14.74
2022-10-02T10:00:05.948Z,14.76
2022-10-02T10:03:11.690Z,14.77
2022-10-02T10:06:10.459Z,14.78
2022-10-02T10:08:59.365Z,14.77
2022-10-02T10:11:56.418Z,14.78
2022-10-02T10:14:48.269Z,14.80
2022-10-02T10:17:52.373Z,14.81
2022-10-02T10:20:40.908Z,14.82
2022-10-02T10:23:22.680Z,14.83
2022-10-02T10:26:18.778Z,14.85
2022-10-02T10:29:15.687Z,14.85
2022-10-02T10:32:21.241Z,14.87
2022-10-02T10:35:26.832Z,14.89
2022-10-02T10:38:30.084Z,14.89
2022-10-02T10:41:31.211Z,14.90
2022-10-02T10:44:38.437Z,14.93
2022-10-02T10:47:35.530Z,14.94
2022-10-02T10:50:21.215Z,14.95
2022-10-02T10:53:17.468Z,14.97
2022-10-02T10:56:10.208Z,14.97
2022-10-02T10:58:54.693Z,14.96
2022-10-02T11:01:29.781Z,14.99
2022-10-02T11:04:18.611Z,15.01
2022-10-02T11:07:08.437Z,15.01
2022-10-02T11:09:53.860Z,15.02
2022-10-02T11:12:47.300Z,15.03
2022-10-02T11:15:37.180Z,15.04
2022-10-02T11:18:28.815Z,15.06
2022-10-02T11:21:22.079Z,15.06
2022-10-02T11:24:03.832Z,15.08
2022-10-02T11:26:48.257Z,15.08
2022-10-02T11:29:39.981Z,15.10
2022-10-02T11:32:43.872Z,15.10
2022-10-02T11:35:23.427Z,15.12
2022-10-02T11:38:15.076Z,15.12
2022-10-02T11:41:14.643Z,15.19
2022-10-02T11:44:09.118Z,15.21
2022-10-02T11:47:01.831Z,15.24
2022-10-02T11:50:01.876Z,15.27
2022-10-02T11:53:02.883Z,15.28
2022-10-02T11:55:46.166Z,15.29
2022-10-02T11:58:26.292Z,15.31
2022-10-02T12:01:05.826Z,15.31
2022-10-02T12:03:46.965Z,15.32
2022-10-02T12:06:33.547Z,15.34
2022-10-02T12:09:12.497Z,15.38
2022-10-02T12:11:49.303Z,15.39
2022-10-02T12:14:32.622Z,15.41
2022-10-02T12:17:16.575Z,15.42
2022-10-02T12:20:23.575Z,15.41
2022-10-02T12:23:19.082Z,15.35
2022-10-02T12:26:13.359Z,15.42
2022-10-02T12:28:52.322Z,15.42
2022-10-02T12:31:28.815Z,15.42
2022-10-02T12:34:02.241Z,15.43
2022-10-02T12:36:48.171Z,15.37
2022-10-02T12:39:32.934Z,15.43
2022-10-02T12:42:17.177Z,15.41
2022-10-02T12:45:02.702Z,15.43
2022-10-02T12:48:07.106Z,15.43
2022-10-02T12:50:53.631Z,15.43
2022-10-02T12:53:56.968Z,15.43
2022-10-02T12:56:56.048Z,15.45
2022-10-02T12:59:36.211Z,15.43
2022-10-02T13:03:00.810Z,15.45
2022-10-02T13:05:49.101Z,15.45
2022-10-02T13:08:35.326Z,15.46
2022-10-02T13:11:14.689Z,15.45
2022-10-02T13:13:56.156Z,15.48
2022-10-02T13:16:35.617Z,15.48
2022-10-02T13:19:16.130Z,15.48
2022-10-02T13:21:58.566Z,15.51
2022-10-02T13:24:39.134Z,15.47
2022-10-02T13:27:19.637Z,15.52
2022-10-02T13:30:07.611Z,15.53
2022-10-02T13:32:52.767Z,15.54
2022-10-02T13:35:44.383Z,15.53
2022-10-02T13:38:27.702Z,15.55
2022-10-02T13:41:05.057Z,15.56
2022-10-02T13:43:49.169Z,15.57
2022-10-02T13:46:29.885Z,15.57
2022-10-02T13:49:08.461Z,15.59
2022-10-02T13:51:46.644Z,15.58
2022-10-02T13:54:38.287Z,15.59
2022-10-02T13:57:16.661Z,15.60
2022-10-02T14:00:01.578Z,15.58
2022-10-02T14:02:44.240Z,15.58
2022-10-02T14:05:24.619Z,15.58
2022-10-02T14:08:15.150Z,15.58
2022-10-02T14:10:59.715Z,15.59
2022-10-02T14:13:42.935Z,15.60
2022-10-02T14:16:26.872Z,15.52
2022-10-02T14:19:13.150Z,15.60
2022-10-02T14:21:53.332Z,15.58
2022-10-02T14:24:56.608Z,15.60
2022-10-02T14:27:54.986Z,15.62
2022-10-02T14:30:25.240Z,15.61
2022-10-02T14:33:05.360Z,15.63
2022-10-02T14:35:45.355Z,15.65
2022-10-02T14:38:35.308Z,15.67
2022-10-02T14:41:14.136Z,15.67
2022-10-02T14:44:09.469Z,15.67
2022-10-02T14:46:54.891Z,15.69
2022-10-02T14:49:59.548Z,15.68
2022-10-02T14:52:43.458Z,15.70
2022-10-02T14:55:34.629Z,15.72
2022-10-02T14:58:14.358Z,15.74
2022-10-02T15:00:57.193Z,15.75
2022-10-02T15:03:44.496Z,15.75
2022-10-02T15:06:31.530Z,15.75
2022-10-02T15:09:04.347Z,15.68
2022-10-02T15:11:53.337Z,15.74
2022-10-02T15:14:26.183Z,15.73
2022-10-02T15:17:18.285Z,15.71
2022-10-02T15:19:50.793Z,15.71
2022-10-02T15:22:22.885Z,15.63
2022-10-02T15:24:57.085Z,15.71
2022-10-02T15:27:30.209Z,15.70
2022-10-02T15:30:17.397Z,15.70
2022-10-02T15:33:00.787Z,15.71
2022-10-02T15:35:42.100Z,15.70
2022-10-02T15:38:31.558Z,15.69
2022-10-02T15:41:33.131Z,15.69
2022-10-02T15:44:10.476Z,15.68
2022-10-02T15:46:50.162Z,15.66
2022-10-02T15:49:32.275Z,15.65
2022-10-02T15:52:05.209Z,15.65
2022-10-02T15:54:46.608Z,15.65
2022-10-02T15:57:36.662Z,15.65
2022-10-02T16:00:16.098Z,15.65
2022-10-02T16:03:01.228Z,15.64
2022-10-02T16:05:48.809Z,15.62
2022-10-02T16:08:34.192Z,15.63
2022-10-02T16:11:18.871Z,15.61
2022-10-02T16:13:59.385Z,15.61
2022-10-02T16:16:50.043Z,15.61
2022-10-02T16:19:28.745Z,15.60
2022-10-02T16:22:19.144Z,15.60
2022-10-02T16:25:08.232Z,15.58
2022-10-02T16:28:09.318Z,15.59
2022-10-02T16:30:58.817Z,15.49
2022-10-02T16:33:38.991Z,15.47
2022-10-02T16:36:30.301Z,15.51
2022-10-02T16:39:13.607Z,15.51
2022-10-02T16:41:58.673Z,15.48
2022-10-02T16:44:56.839Z,15.48
2022-10-02T16:47:30.225Z,15.47
2022-10-02T16:50:09.549Z,15.46
2022-10-02T16:52:42.664Z,15.44
2022-10-02T16:55:22.021Z,15.44
2022-10-02T16:57:55.883Z,15.41
2022-10-02T17:00:29.982Z,15.43
2022-10-02T17:03:05.808Z,15.40
2022-10-02T17:05:46.251Z,15.40
2022-10-02T17:08:24.105Z,15.39
2022-10-02T17:11:07.217Z,15.40
2022-10-02T17:13:45.847Z,15.41
2022-10-02T17:16:21.231Z,15.41
2022-10-02T17:18:55.788Z,15.40
2022-10-02T17:21:29.645Z,15.39
2022-10-02T17:24:22.560Z,15.37
2022-10-02T17:26:57.573Z,15.38
2022-10-02T17:29:33.319Z,15.37
2022-10-02T17:32:01.477Z,15.36
2022-10-02T17:34:32.044Z,15.36
2022-10-02T17:37:08.638Z,15.35
2022-10-02T17:40:00.381Z,15.34
2022-10-02T17:42:41.205Z,15.33
2022-10-02T17:45:26.598Z,15.33
2022-10-02T17:48:07.632Z,15.33
2022-10-02T17:50:47.065Z,15.33
2022-10-02T17:53:47.701Z,15.33
2022-10-02T17:56:29.674Z,15.33
2022-10-02T17:59:20.094Z,15.32
2022-10-02T18:01:59.207Z,15.31
2022-10-02T18:04:37.633Z,15.31
2022-10-02T18:07:26.685Z,15.30
2022-10-02T18:10:05.102Z,15.29
2022-10-02T18:13:15.480Z,15.27
2022-10-02T18:16:01.092Z,15.20
2022-10-02T18:18:36.460Z,15.26
2022-10-02T18:21:22.127Z,15.25
2022-10-02T18:24:17.332Z,15.26
2022-10-02T18:27:13.367Z,15.24
2022-10-02T18:30:04.451Z,15.22
2022-10-02T18:32:54.834Z,15.21
2022-10-02T18:35:32.224Z,15.12
2022-10-02T18:38:13.070Z,15.20
2022-10-02T18:40:54.802Z,15.21
2022-10-02T18:43:38.993Z,15.19
2022-10-02T18:46:19.864Z,15.19
2022-10-02T18:49:10.008Z,15.18
2022-10-02T18:52:02.362Z,15.17
2022-10-02T18:54:46.044Z,15.17
2022-10-02T18:57:31.251Z,15.17
2022-10-02T19:00:14.000Z,15.08
2022-10-02T19:02:56.535Z,15.16
2022-10-02T19:05:29.200Z,15.08
2022-10-02T19:08:11.330Z,15.15
2022-10-02T19:10:44.837Z,15.14
2022-10-02T19:13:18.076Z,15.13
2022-10-02T19:15:49.442Z,15.11
2022-10-02T19:18:19.020Z,15.10
2022-10-02T19:20:57.953Z,15.10
2022-10-02T19:23:30.112Z,15.08
2022-10-02T19:26:03.144Z,15.07
2022-10-02T19:28:39.821Z,15.06
2022-10-02T19:31:12.325Z,15.04
2022-10-02T19:33:45.447Z,15.03
2022-10-02T19:36:20.212Z,15.02
2022-10-02T19:38:55.030Z,15.01
2022-10-02T19:41:23.820Z,14.98
2022-10-02T19:43:57.320Z,14.98
2022-10-02T19:46:39.678Z,14.97
2022-10-02T19:49:09.775Z,14.89
2022-10-02T19:51:45.539Z,14.96
2022-10-02T19:54:18.960Z,14.94
2022-10-02T19:56:48.200Z,14.93
2022-10-02T19:59:19.683Z,14.93
2022-10-02T20:01:52.823Z,14.92
2022-10-02T20:04:23.699Z,14.90
2022-10-02T20:06:54.620Z,14.90
2022-10-02T20:09:28.322Z,14.89
2022-10-02T20:12:01.131Z,14.89
2022-10-02T20:14:33.340Z,14.87
2022-10-02T20:17:10.332Z,14.84
2022-10-02T20:19:45.250Z,14.85
2022-10-02T20:22:24.112Z,14.85
2022-10-02T20:24:58.249Z,14.84
2022-10-02T20:27:36.567Z,14.83
2022-10-02T20:30:12.305Z,14.84
2022-10-02T20:32:46.056Z,14.81
2022-10-02T20:35:21.075Z,14.81
2022-10-02T20:37:50.641Z,14.79
2022-10-02T20:40:22.190Z,14.80
2022-10-02T20:42:58.317Z,14.78
2022-10-02T20:45:36.552Z,14.77
2022-10-02T20:48:43.767Z,14.76
2022-10-02T20:51:34.091Z,14.75
2022-10-02T20:54:36.316Z,14.74
2022-10-02T20:57:43.399Z,14.72
2022-10-02T21:00:19.240Z,14.71
2022-10-02T21:03:23.764Z,14.69
2022-10-02T21:06:40.466Z,14.68
2022-10-02T21:09:49.900Z,14.65
2022-10-02T21:12:47.012Z,14.64
2022-10-02T21:15:47.117Z,14.64
2022-10-02T21:18:50.693Z,14.61
2022-10-02T21:21:53.839Z,14.60
2022-10-02T21:25:03.320Z,14.59
2022-10-02T21:28:13.908Z,14.57
2022-10-02T21:30:53.335Z,14.54
2022-10-02T21:33:23.036Z,14.54
2022-10-02T21:35:56.427Z,14.53
2022-10-02T21:38:54.664Z,14.53
2022-10-02T21:42:09.076Z,14.51
2022-10-02T21:45:13.766Z,14.51
2022-10-02T21:47:57.779Z,14.50
2022-10-02T21:51:01.967Z,14.49
2022-10-02T21:54:22.448Z,14.48
2022-10-02T21:57:42.072Z,14.47
2022-10-02T22:00:17.116Z,14.46
2022-10-02T22:03:17.883Z,14.46
2022-10-02T22:06:22.172Z,14.36
2022-10-02T22:09:04.376Z,14.42
2022-10-02T22:11:41.088Z,14.41
2022-10-02T22:14:13.437Z,14.40
2022-10-02T22:16:55.229Z,14.40
2022-10-02T22:19:38.828Z,14.38
2022-10-02T22:22:21.707Z,14.33
2022-10-02T22:25:04.819Z,14.38
2022-10-02T22:28:00.524Z,14.36
2022-10-02T22:30:31.013Z,14.34
2022-10-02T22:33:25.189Z,14.33
2022-10-02T22:36:14.932Z,14.31
2022-10-02T22:38:49.264Z,14.31
2022-10-02T22:41:27.125Z,14.29
2022-10-02T22:43:58.639Z,14.27
2022-10-02T22:46:41.000Z,14.26
2022-10-02T22:49:20.514Z,14.24
2022-10-02T22:51:59.371Z,14.24
2022-10-02T22:54:34.073Z,14.21
2022-10-02T22:57:14.403Z,14.20
2022-10-02T22:59:47.582Z,14.20
2022-10-02T23:02:21.852Z,14.18
2022-10-02T23:04:57.223Z,14.10
2022-10-02T23:07:29.687Z,14.15
2022-10-02T23:10:02.768Z,14.14
2022-10-02T23:12:38.938Z,14.10
2022-10-02T23:15:30.938Z,14.11
2022-10-02T23:18:02.654Z,14.09
2022-10-02T23:20:36.985Z,14.10
2022-10-02T23:23:14.828Z,14.08
2022-10-02T23:25:50.748Z,14.06
2022-10-02T23:28:24.232Z,13.97
2022-10-02T23:31:03.297Z,14.05
2022-10-02T23:33:42.101Z,14.03
2022-10-02T23:36:22.261Z,14.02
2022-10-02T23:38:58.268Z,14.01
2022-10-02T23:41:46.498Z,13.94
2022-10-02T23:44:32.872Z,14.00
2022-10-02T23:47:20.823Z,13.98
2022-10-02T23:49:51.267Z,13.98
2022-10-02T23:52:46.535Z,13.97
2022-10-02T23:55:29.505Z,13.95
2022-10-02T23:58:23.751Z,13.95
